createdAt,value
2017-11-25T00:00:20.014Z,8.44
2017-11-25T00:01:29.817Z,8.64
2017-11-25T00:02:39.645Z,8.57
2017-11-25T00:03:49.760Z,8.6
2017-11-25T00:04:59.572Z,8.61
2017-11-25T00:06:09.634Z,8.69
2017-11-25T00:07:19.719Z,8.69
2017-11-25T00:08:29.790Z,8.74
2017-11-25T00:09:39.855Z,8.71
2017-11-25T00:10:49.935Z,8.8
2017-11-25T00:11:59.506Z,8.69
2017-11-25T00:13:09.583Z,8.77
2017-11-25T00:14:19.382Z,8.72
2017-11-25T00:15:29.529Z,8.86
2017-11-25T00:16:39.599Z,8.79
2017-11-25T00:17:49.699Z,8.79
2017-11-25T00:19:00.554Z,8.72
2017-11-25T00:20:10.366Z,8.72
2017-11-25T00:21:20.176Z,8.79
2017-11-25T00:22:29.722Z,8.76
2017-11-25T00:23:39.520Z,8.72
2017-11-25T00:24:49.616Z,8.74
2017-11-25T00:25:59.722Z,8.71
2017-11-25T00:27:09.804Z,8.71
2017-11-25T00:28:19.861Z,8.71
2017-11-25T00:29:29.945Z,8.69
2017-11-25T00:30:40.007Z,8.68
2017-11-25T00:31:49.820Z,8.8
2017-11-25T00:32:59.638Z,8.85
2017-11-25T00:34:09.707Z,8.76
2017-11-25T00:35:19.521Z,8.77
2017-11-25T00:36:29.343Z,8.77
2017-11-25T00:37:39.152Z,8.8
2017-11-25T00:38:48.988Z,8.77
2017-11-25T00:39:59.088Z,8.82
2017-11-25T00:41:08.912Z,8.76
2017-11-25T00:42:20.252Z,8.69
2017-11-25T00:48:30.340Z,8.58
2017-11-25T00:49:42.868Z,8.62
2017-11-25T00:50:52.959Z,8.58
2017-11-25T00:52:04.118Z,8.58
2017-11-25T00:53:14.180Z,8.54
2017-11-25T00:54:24.258Z,8.61
2017-11-25T00:55:34.350Z,8.65
2017-11-25T00:56:44.180Z,8.68
2017-11-25T00:57:53.725Z,8.68
2017-11-25T00:59:03.548Z,8.69
2017-11-25T01:00:13.692Z,8.65
2017-11-25T01:01:23.772Z,8.58
2017-11-25T01:02:33.300Z,8.57
2017-11-25T01:03:43.370Z,8.62
2017-11-25T01:04:53.186Z,8.61
2017-11-25T01:06:03.325Z,8.62
2017-11-25T01:07:13.396Z,8.68
2017-11-25T01:08:23.485Z,8.6
2017-11-25T01:09:33.291Z,8.6
2017-11-25T01:10:43.368Z,8.57
2017-11-25T01:11:53.437Z,8.44
2017-11-25T01:13:03.496Z,8.4
2017-11-25T01:14:14.704Z,8.49
2017-11-25T01:15:24.516Z,8.42
2017-11-25T01:16:34.999Z,8.49
2017-11-25T01:17:44.817Z,8.44
2017-11-25T01:18:54.938Z,8.46
2017-11-25T01:20:04.744Z,8.4
2017-11-25T01:21:14.550Z,8.49
2017-11-25T01:22:23.832Z,8.39
2017-11-25T01:23:33.909Z,8.35
2017-11-25T01:24:43.978Z,8.35
2017-11-25T01:25:53.802Z,8.36
2017-11-25T01:27:03.599Z,8.39
2017-11-25T01:28:13.399Z,8.42
2017-11-25T01:29:23.508Z,8.32
2017-11-25T01:30:33.316Z,8.39
2017-11-25T01:31:43.127Z,8.31
2017-11-25T01:32:52.674Z,8.35
2017-11-25T01:34:02.494Z,8.36
2017-11-25T01:35:12.323Z,8.43
2017-11-25T01:36:23.741Z,8.4
2017-11-25T01:37:33.547Z,8.39
2017-11-25T01:38:43.633Z,8.42
2017-11-25T01:39:53.458Z,8.29
2017-11-25T01:41:03.540Z,8.31
2017-11-25T01:42:13.406Z,8.29
2017-11-25T01:43:23.499Z,8.32
2017-11-25T01:44:33.306Z,8.31
2017-11-25T01:45:43.434Z,8.22
2017-11-25T01:46:53.233Z,8.34
2017-11-25T01:48:03.369Z,8.19
2017-11-25T01:49:13.161Z,8.29
2017-11-25T01:50:23.000Z,8.26
2017-11-25T01:51:33.095Z,8.17
2017-11-25T01:52:43.182Z,8.19
2017-11-25T01:53:53.260Z,8.16
2017-11-25T01:55:03.337Z,8.16
2017-11-25T01:56:13.435Z,8.16
2017-11-25T01:57:23.514Z,8.17
2017-11-25T01:58:33.625Z,8.16
2017-11-25T01:59:43.159Z,8.28
2017-11-25T02:00:53.234Z,8.16
2017-11-25T02:02:03.043Z,8.25
2017-11-25T02:03:12.615Z,8.31
2017-11-25T02:04:22.707Z,8.28
2017-11-25T02:05:32.555Z,8.28
2017-11-25T02:06:42.359Z,8.28
2017-11-25T02:07:52.442Z,8.21
2017-11-25T02:09:02.250Z,8.22
2017-11-25T02:10:12.301Z,8.22
2017-11-25T02:11:22.139Z,8.25
2017-11-25T02:12:31.694Z,8.29
2017-11-25T02:13:41.489Z,8.28
2017-11-25T02:14:51.563Z,8.26
2017-11-25T02:16:01.618Z,8.24
2017-11-25T02:17:11.435Z,8.25
2017-11-25T02:18:21.241Z,8.19
2017-11-25T02:19:31.314Z,8.16
2017-11-25T02:20:41.136Z,8.17
2017-11-25T02:21:50.672Z,8.24
2017-11-25T02:23:00.484Z,8.29
2017-11-25T02:24:10.301Z,8.19
2017-11-25T02:25:20.397Z,8.25
2017-11-25T02:26:30.204Z,8.17
2017-11-25T02:27:39.743Z,8.14
2017-11-25T02:28:49.893Z,8.21
2017-11-25T02:29:59.696Z,8.24
2017-11-25T02:31:09.797Z,8.14
2017-11-25T02:32:19.084Z,8.14
2017-11-25T02:33:28.916Z,8.17
2017-11-25T02:34:39.032Z,8.13
2017-11-25T02:35:48.836Z,8.22
2017-11-25T02:36:58.656Z,8.22
2017-11-25T02:38:08.741Z,8.19
2017-11-25T02:39:18.547Z,8.16
2017-11-25T02:40:28.376Z,8.28
2017-11-25T02:41:38.473Z,8.34
2017-11-25T02:42:48.580Z,8.29
2017-11-25T02:43:58.410Z,8.21
2017-11-25T02:45:08.235Z,8.26
2017-11-25T02:46:18.102Z,8.31
2017-11-25T02:47:27.925Z,8.24
2017-11-25T02:48:38.026Z,8.26
2017-11-25T02:49:48.114Z,8.31
2017-11-25T02:50:58.217Z,8.26
2017-11-25T02:52:07.773Z,8.31
2017-11-25T02:53:17.606Z,8.29
2017-11-25T02:54:27.703Z,8.34
2017-11-25T02:55:37.534Z,8.26
2017-11-25T02:56:47.616Z,8.28
2017-11-25T02:57:57.757Z,8.35
2017-11-25T02:59:07.830Z,8.44
2017-11-25T03:00:17.919Z,8.32
2017-11-25T03:01:27.725Z,8.36
2017-11-25T03:02:37.520Z,8.43
2017-11-25T03:34:16.486Z,5.91
2017-11-25T03:35:26.601Z,5.89
2017-11-25T03:36:36.672Z,5.88
2017-11-25T03:37:46.747Z,5.81
2017-11-25T03:38:56.564Z,6
2017-11-25T03:40:06.418Z,6
2017-11-25T03:41:16.242Z,6.14
2017-11-25T03:42:26.041Z,6.36
2017-11-25T03:43:36.117Z,6.4
2017-11-25T03:44:45.932Z,6.54
2017-11-25T03:45:55.739Z,6.78
2017-11-25T03:47:05.813Z,6.79
2017-11-25T03:48:15.623Z,7
2017-11-25T03:49:25.710Z,7.11
2017-11-25T03:50:35.257Z,7.3
2017-11-25T03:51:45.348Z,7.39
2017-11-25T03:52:55.438Z,7.45
2017-11-25T03:54:05.536Z,7.54
2017-11-25T03:55:15.340Z,7.67
2017-11-25T03:56:25.459Z,7.68
2017-11-25T03:57:35.543Z,7.75
2017-11-25T03:58:45.348Z,7.92
2017-11-25T03:59:54.906Z,7.93
2017-11-25T04:01:05.153Z,7.91
2017-11-25T04:02:14.959Z,7.96
2017-11-25T04:03:25.042Z,7.93
2017-11-25T04:04:34.871Z,8.09
2017-11-25T04:05:44.690Z,7.98
2017-11-25T04:06:54.231Z,8.13
2017-11-25T04:08:04.341Z,8.06
2017-11-25T04:09:14.414Z,8.14
2017-11-25T04:10:24.224Z,8.16
2017-11-25T04:11:34.029Z,8.19
2017-11-25T04:12:43.553Z,8.17
2017-11-25T04:13:53.351Z,8.17
2017-11-25T04:15:03.407Z,8.28
2017-11-25T04:16:13.647Z,8.22
2017-11-25T04:17:23.456Z,8.16
2017-11-25T04:18:33.507Z,8.21
2017-11-25T04:19:43.594Z,8.26
2017-11-25T04:20:53.396Z,8.34
2017-11-25T04:22:03.479Z,8.21
2017-11-25T04:23:13.538Z,8.25
2017-11-25T04:24:23.613Z,8.24
2017-11-25T04:25:33.695Z,8.36
2017-11-25T04:26:43.840Z,8.44
2017-11-25T04:27:53.923Z,8.4
2017-11-25T04:29:04.009Z,8.36
2017-11-25T04:30:13.839Z,8.46
2017-11-25T04:31:23.387Z,8.36
2017-11-25T04:32:33.445Z,8.46
2017-11-25T04:33:42.981Z,8.46
2017-11-25T04:34:53.054Z,8.47
2017-11-25T04:36:02.865Z,8.32
2017-11-25T04:37:12.426Z,8.4
2017-11-25T04:38:22.562Z,8.43
2017-11-25T04:39:32.652Z,8.42
2017-11-25T04:40:42.251Z,8.47
2017-11-25T04:41:52.075Z,8.4
2017-11-25T04:43:02.146Z,8.39
2017-11-25T04:44:12.209Z,8.35
2017-11-25T04:45:22.022Z,8.46
2017-11-25T04:46:32.105Z,8.39
2017-11-25T04:47:41.654Z,8.4
2017-11-25T04:48:50.933Z,8.39
2017-11-25T04:50:00.737Z,8.46
2017-11-25T04:51:10.913Z,8.42
2017-11-25T04:52:20.989Z,8.42
2017-11-25T04:53:31.069Z,8.35
2017-11-25T04:54:40.632Z,8.31
2017-11-25T04:55:50.229Z,8.42
2017-11-25T04:57:00.202Z,8.44
2017-11-25T04:58:10.288Z,8.39
2017-11-25T04:59:20.106Z,8.44
2017-11-25T05:00:29.915Z,8.39
2017-11-25T05:01:39.742Z,8.36
2017-11-25T05:02:49.821Z,8.32
2017-11-25T05:03:59.898Z,8.46
2017-11-25T05:05:09.699Z,8.47
2017-11-25T05:06:19.495Z,8.4
2017-11-25T05:07:29.554Z,8.39
2017-11-25T05:08:39.634Z,8.35
2017-11-25T05:09:49.715Z,8.39
2017-11-25T05:10:59.537Z,8.39
2017-11-25T05:12:09.079Z,8.46
2017-11-25T05:13:18.891Z,8.49
2017-11-25T05:14:28.961Z,8.47
2017-11-25T05:15:38.779Z,8.49
2017-11-25T05:16:48.854Z,8.47
2017-11-25T05:17:58.958Z,8.5
2017-11-25T05:19:09.069Z,8.49
2017-11-25T05:20:18.882Z,8.44
2017-11-25T05:21:28.685Z,8.32
2017-11-25T05:22:38.766Z,8.36
2017-11-25T05:23:48.837Z,8.35
2017-11-25T05:24:58.913Z,8.44
2017-11-25T05:26:08.993Z,8.39
2017-11-25T05:27:19.086Z,8.4
2017-11-25T05:28:29.168Z,8.35
2017-11-25T05:29:38.964Z,8.44
2017-11-25T05:30:48.772Z,8.43
2017-11-25T05:31:58.849Z,8.44
2017-11-25T05:33:08.672Z,8.46
2017-11-25T05:34:18.218Z,8.44
2017-11-25T05:35:28.288Z,8.53
2017-11-25T05:36:38.164Z,8.44
2017-11-25T05:37:48.255Z,8.54
2017-11-25T05:38:58.333Z,8.58
2017-11-25T05:40:08.416Z,8.5
2017-11-25T05:41:18.480Z,8.53
2017-11-25T05:42:28.333Z,8.58
2017-11-25T05:43:38.406Z,8.47
2017-11-25T05:44:48.231Z,8.5
2017-11-25T05:45:58.317Z,8.44
2017-11-25T05:47:07.606Z,8.49
2017-11-25T05:48:17.691Z,8.44
2017-11-25T05:49:27.500Z,8.5
2017-11-25T05:50:36.774Z,8.6
2017-11-25T05:51:46.585Z,8.4
2017-11-25T05:52:56.675Z,8.53
2017-11-25T05:54:06.267Z,8.47
2017-11-25T05:55:15.821Z,8.44
2017-11-25T05:56:25.891Z,8.44
2017-11-25T05:57:35.717Z,8.54
2017-11-25T05:58:45.547Z,8.47
2017-11-25T05:59:55.646Z,8.52
2017-11-25T06:01:05.472Z,8.52
2017-11-25T06:02:15.278Z,8.62
2017-11-25T06:03:25.347Z,8.46
2017-11-25T06:04:35.150Z,8.49
2017-11-25T06:05:45.230Z,8.44
2017-11-25T06:06:55.374Z,8.46
2017-11-25T06:08:05.467Z,8.54
2017-11-25T06:09:14.996Z,8.52
2017-11-25T06:10:25.102Z,8.44
2017-11-25T06:11:34.920Z,8.58
2017-11-25T06:12:44.990Z,8.64
2017-11-25T06:13:54.814Z,8.49
2017-11-25T06:15:04.887Z,8.57
2017-11-25T06:16:14.715Z,8.54
2017-11-25T06:17:24.801Z,8.61
2017-11-25T06:18:34.883Z,8.54
2017-11-25T06:19:44.961Z,8.5
2017-11-25T06:20:55.031Z,8.52
2017-11-25T06:22:04.851Z,8.53
2017-11-25T06:23:14.937Z,8.6
2017-11-25T06:24:24.752Z,8.57
2017-11-25T06:25:34.848Z,8.58
2017-11-25T06:26:44.646Z,8.6
2017-11-25T06:27:54.466Z,8.64
2017-11-25T06:29:04.300Z,8.49
2017-11-25T06:30:14.191Z,8.58
2017-11-25T06:31:23.999Z,8.57
2017-11-25T06:32:34.087Z,8.64
2017-11-25T06:33:43.918Z,8.58
2017-11-25T06:34:54.041Z,8.74
2017-11-25T06:36:04.112Z,8.61
2017-11-25T06:37:14.231Z,8.71
2017-11-25T06:38:24.311Z,8.69
2017-11-25T06:39:34.131Z,8.79
2017-11-25T06:40:43.692Z,8.83
2017-11-25T06:41:53.761Z,8.76
2017-11-25T06:43:03.862Z,8.82
2017-11-25T06:44:13.953Z,8.85
2017-11-25T06:45:23.774Z,8.8
2017-11-25T06:46:33.863Z,8.74
2017-11-25T06:47:43.930Z,8.69
2017-11-25T06:48:54.057Z,8.71
2017-11-25T06:50:03.868Z,8.82
2017-11-25T06:51:13.947Z,8.69
2017-11-25T06:52:24.035Z,8.82
2017-11-25T06:53:33.859Z,8.72
2017-11-25T06:54:43.128Z,8.76
2017-11-25T06:55:53.210Z,8.71
2017-11-25T06:57:03.281Z,8.79
2017-11-25T06:58:12.574Z,8.76
2017-11-25T06:59:22.170Z,8.76
2017-11-25T07:00:31.707Z,8.79
2017-11-25T07:01:41.793Z,8.74
2017-11-25T07:02:51.601Z,8.76
2017-11-25T07:04:01.685Z,8.83
2017-11-25T07:05:11.764Z,8.9
2017-11-25T07:06:21.856Z,8.8
2017-11-25T07:07:31.397Z,8.71
2017-11-25T07:08:41.217Z,8.82
2017-11-25T07:09:51.029Z,8.86
2017-11-25T07:11:01.104Z,8.86
2017-11-25T07:12:10.936Z,8.77
2017-11-25T07:13:20.526Z,8.72
2017-11-25T07:14:30.349Z,8.8
2017-11-25T07:15:40.438Z,8.86
2017-11-25T07:16:50.558Z,8.82
2017-11-25T07:18:00.403Z,8.74
2017-11-25T07:19:10.212Z,8.72
2017-11-25T07:20:20.281Z,8.85
2017-11-25T07:21:30.104Z,8.79
2017-11-25T07:22:40.213Z,8.85
2017-11-25T07:23:50.017Z,8.71
2017-11-25T07:24:59.829Z,8.77
2017-11-25T07:26:09.665Z,8.87
2017-11-25T07:27:19.746Z,8.85
2017-11-25T07:28:29.366Z,8.83
2017-11-25T07:29:39.190Z,8.76
2017-11-25T07:30:49.277Z,8.83
2017-11-25T07:31:59.388Z,8.86
2017-11-25T07:33:09.472Z,8.82
2017-11-25T07:34:19.286Z,8.8
2017-11-25T07:35:29.084Z,8.83
2017-11-25T07:36:38.892Z,8.87
2017-11-25T07:37:48.708Z,8.8
2017-11-25T07:38:58.808Z,8.71
2017-11-25T07:40:08.696Z,8.76
2017-11-25T07:41:18.783Z,8.82
2017-11-25T07:42:28.351Z,8.83
2017-11-25T07:43:38.170Z,8.79
2017-11-25T07:44:48.258Z,8.79
2017-11-25T07:45:58.390Z,8.87
2017-11-25T07:47:08.202Z,8.79
2017-11-25T07:48:18.034Z,8.72
2017-11-25T07:49:27.584Z,8.85
2017-11-25T07:50:37.662Z,8.82
2017-11-25T07:51:47.769Z,8.86
2017-11-25T07:52:57.857Z,8.77
2017-11-25T07:54:08.041Z,8.79
2017-11-25T07:55:17.851Z,8.85
2017-11-25T07:56:27.936Z,8.8
2017-11-25T07:57:37.494Z,8.8
2017-11-25T07:58:48.245Z,8.79
2017-11-25T07:59:58.057Z,8.65
2017-11-25T08:01:08.139Z,8.72
2017-11-25T08:02:17.949Z,8.77
2017-11-25T08:03:27.759Z,8.71
2017-11-25T08:04:37.836Z,8.69
2017-11-25T08:05:47.664Z,8.74
2017-11-25T08:06:57.774Z,8.79
2017-11-25T08:08:07.603Z,8.79
2017-11-25T08:09:18.686Z,8.79
2017-11-25T08:10:28.751Z,8.82
2017-11-25T08:11:38.300Z,8.77
2017-11-25T08:12:48.109Z,8.71
2017-11-25T08:13:58.185Z,8.72
2017-11-25T08:15:08.269Z,8.77
2017-11-25T08:16:18.087Z,8.71
2017-11-25T08:17:27.882Z,8.82
2017-11-25T08:18:37.679Z,8.72
2017-11-25T08:19:47.785Z,8.8
2017-11-25T08:20:57.348Z,8.77
2017-11-25T08:22:06.920Z,8.79
2017-11-25T08:23:16.762Z,8.71
2017-11-25T08:24:26.853Z,8.69
2017-11-25T08:25:36.666Z,8.71
2017-11-25T08:26:46.480Z,8.65
2017-11-25T08:27:56.297Z,8.71
2017-11-25T08:29:06.391Z,8.83
2017-11-25T08:30:16.213Z,8.74
2017-11-25T08:31:26.290Z,8.72
2017-11-25T08:32:36.167Z,8.64
2017-11-25T08:33:46.021Z,8.72
2017-11-25T08:34:55.859Z,8.77
2017-11-25T08:36:05.677Z,8.8
2017-11-25T08:37:15.498Z,8.8
2017-11-25T08:38:25.637Z,8.83
2017-11-25T08:39:35.200Z,8.87
2017-11-25T08:40:45.274Z,8.9
2017-11-25T08:41:55.066Z,8.85
2017-11-25T08:43:04.881Z,8.83
2017-11-25T08:44:14.754Z,8.89
2017-11-25T08:45:24.584Z,8.86
2017-11-25T08:46:34.649Z,8.87
2017-11-25T08:47:44.724Z,8.98
2017-11-25T08:48:54.280Z,8.94
2017-11-25T08:50:04.142Z,8.94
2017-11-25T08:51:13.958Z,9.01
2017-11-25T08:52:23.515Z,9.03
2017-11-25T08:53:33.594Z,8.95
2017-11-25T08:54:43.694Z,9.04
2017-11-25T08:55:53.795Z,9.08
2017-11-25T08:57:03.886Z,9.16
2017-11-25T08:58:13.967Z,9.04
2017-11-25T08:59:23.812Z,9.12
2017-11-25T09:00:33.373Z,9.14
2017-11-25T09:01:43.548Z,9.19
2017-11-25T09:02:53.618Z,9.11
2017-11-25T09:04:03.770Z,9.21
2017-11-25T09:05:13.301Z,9.12
2017-11-25T09:06:23.381Z,9.11
2017-11-25T09:07:32.989Z,9.19
2017-11-25T09:08:43.075Z,9.19
2017-11-25T09:09:53.137Z,9.17
2017-11-25T09:11:02.970Z,9.16
2017-11-25T09:12:13.063Z,9.23
2017-11-25T09:13:23.133Z,9.21
2017-11-25T09:14:33.230Z,9.17
2017-11-25T09:15:43.357Z,9.17
2017-11-25T09:16:53.473Z,9.24
2017-11-25T09:18:03.575Z,9.24
2017-11-25T09:19:13.729Z,9.17
2017-11-25T09:20:23.283Z,9.21
2017-11-25T09:21:33.120Z,9.29
2017-11-25T09:22:42.987Z,9.19
2017-11-25T09:23:52.808Z,9.3
2017-11-25T09:25:02.683Z,9.29
2017-11-25T09:26:12.515Z,9.34
2017-11-25T09:27:22.331Z,9.3
2017-11-25T09:28:32.168Z,9.34
2017-11-25T09:29:41.982Z,9.24
2017-11-25T09:30:51.803Z,9.34
2017-11-25T09:32:01.902Z,9.29
2017-11-25T09:33:12.028Z,9.38
2017-11-25T09:34:22.124Z,9.3
2017-11-25T09:35:32.207Z,9.38
2017-11-25T09:36:41.814Z,9.41
2017-11-25T09:37:51.663Z,9.35
2017-11-25T09:39:01.736Z,9.41
2017-11-25T09:40:11.536Z,9.5
2017-11-25T09:41:21.351Z,9.45
2017-11-25T09:42:31.199Z,9.38
2017-11-25T09:43:41.007Z,9.41
2017-11-25T09:44:50.828Z,9.52
2017-11-25T09:46:00.897Z,9.44
2017-11-25T09:47:10.444Z,9.41
2017-11-25T09:48:20.006Z,9.42
2017-11-25T09:49:29.822Z,9.37
2017-11-25T09:50:39.907Z,9.42
2017-11-25T09:51:49.730Z,9.45
2017-11-25T09:52:59.816Z,9.53
2017-11-25T09:54:09.964Z,9.62
2017-11-25T09:55:20.050Z,9.63
2017-11-25T09:56:29.863Z,9.56
2017-11-25T09:57:39.947Z,9.6
2017-11-25T09:58:50.042Z,9.64
2017-11-25T10:00:00.130Z,9.75
2017-11-25T10:01:09.685Z,9.72
2017-11-25T10:02:19.242Z,9.74
2017-11-25T10:03:29.337Z,9.77
2017-11-25T10:04:39.147Z,9.81
2017-11-25T10:05:49.232Z,9.84
2017-11-25T10:06:59.072Z,9.84
2017-11-25T10:08:09.151Z,9.82
2017-11-25T10:09:19.244Z,9.85
2017-11-25T10:10:28.797Z,10.03
2017-11-25T10:11:38.334Z,10.05
2017-11-25T10:12:47.892Z,10.13
2017-11-25T10:13:57.993Z,10.15
2017-11-25T10:15:07.827Z,10.11
2017-11-25T10:16:17.658Z,10.21
2017-11-25T10:17:27.480Z,10.31
2017-11-25T10:18:37.589Z,10.38
2017-11-25T10:19:47.675Z,10.32
2017-11-25T10:20:57.749Z,10.47
2017-11-25T10:22:07.568Z,10.41
2017-11-25T10:23:17.422Z,10.41
2017-11-25T10:24:27.228Z,10.47
2017-11-25T10:25:37.051Z,10.49
2017-11-25T10:26:46.862Z,10.51
2017-11-25T10:27:56.683Z,10.41
2017-11-25T10:29:06.513Z,10.38
2017-11-25T10:30:16.602Z,10.39
2017-11-25T10:31:26.676Z,10.36
2017-11-25T10:32:36.756Z,10.36
2017-11-25T10:33:46.587Z,10.47
2017-11-25T10:34:56.741Z,10.54
2017-11-25T10:36:06.812Z,10.49
2017-11-25T10:37:16.630Z,10.58
2017-11-25T10:38:26.735Z,10.61
2017-11-25T10:39:36.596Z,10.58
2017-11-25T10:40:46.153Z,10.69
2017-11-25T10:41:55.724Z,10.61
2017-11-25T10:43:05.823Z,10.66
2017-11-25T10:44:15.906Z,10.76
2017-11-25T10:45:25.988Z,10.66
2017-11-25T10:46:35.838Z,10.69
2017-11-25T10:47:45.388Z,10.63
2017-11-25T10:48:55.201Z,10.65
2017-11-25T10:50:05.030Z,10.66
2017-11-25T10:51:14.586Z,10.77
2017-11-25T10:52:24.666Z,10.79
2017-11-25T10:53:34.767Z,10.95
2017-11-25T10:54:44.860Z,11.06
2017-11-25T10:55:54.136Z,11.24
2017-11-25T10:57:05.402Z,11.27
2017-11-25T10:58:15.561Z,11.33
2017-11-25T10:59:25.671Z,11.34
2017-11-25T11:00:35.758Z,11.45
2017-11-25T11:01:45.570Z,11.53
2017-11-25T11:02:55.392Z,11.49
2017-11-25T11:04:05.294Z,11.61
2017-11-25T11:05:15.142Z,11.52
2017-11-25T11:06:24.688Z,11.63
2017-11-25T11:07:34.491Z,11.7
2017-11-25T11:08:44.318Z,11.68
2017-11-25T11:09:54.395Z,11.73
2017-11-25T11:11:04.479Z,11.82
2017-11-25T11:12:14.564Z,11.85
2017-11-25T11:13:24.369Z,11.88
2017-11-25T11:14:34.207Z,11.84
2017-11-25T11:15:44.300Z,11.84
2017-11-25T11:16:54.124Z,11.82
2017-11-25T11:18:03.660Z,11.82
2017-11-25T11:19:13.741Z,11.91
2017-11-25T11:20:23.651Z,11.88
2017-11-25T11:21:33.514Z,11.89
2017-11-25T11:22:43.335Z,11.91
2017-11-25T11:23:53.154Z,12.13
2017-11-25T11:25:02.956Z,12.33
2017-11-25T11:26:13.028Z,12.37
2017-11-25T11:27:23.113Z,12.37
2017-11-25T11:28:33.230Z,12.48
2017-11-25T11:29:43.326Z,12.56
2017-11-25T11:30:53.148Z,12.56
2017-11-25T11:32:03.247Z,12.61
2017-11-25T11:33:13.399Z,12.62
2017-11-25T11:34:23.481Z,12.8
2017-11-25T11:35:33.543Z,12.91
2017-11-25T11:36:43.640Z,13.07
2017-11-25T11:37:53.727Z,13.09
2017-11-25T11:39:03.287Z,13.1
2017-11-25T11:40:13.369Z,13.16
2017-11-25T11:41:22.929Z,13.36
2017-11-25T11:42:33.017Z,13.53
2017-11-25T11:43:42.863Z,13.55
2017-11-25T11:44:53.018Z,13.58
2017-11-25T11:46:02.842Z,13.65
2017-11-25T11:47:12.643Z,13.7
2017-11-25T11:48:22.450Z,13.7
2017-11-25T11:49:32.297Z,13.81
2017-11-25T11:50:42.440Z,13.93
2017-11-25T11:51:52.557Z,13.93
2017-11-25T11:53:02.369Z,13.95
2017-11-25T11:54:12.466Z,14.06
2017-11-25T11:55:22.547Z,14.13
2017-11-25T11:56:32.178Z,14.34
2017-11-25T11:57:42.275Z,14.63
2017-11-25T11:58:52.087Z,14.74
2017-11-25T12:00:01.923Z,14.87
2017-11-25T12:01:11.793Z,15.02
2017-11-25T12:02:21.681Z,15.07
2017-11-25T12:03:31.754Z,15.23
2017-11-25T12:04:41.820Z,15.18
2017-11-25T12:05:51.918Z,15.27
2017-11-25T12:07:02.008Z,15.37
2017-11-25T12:08:11.830Z,15.44
2017-11-25T12:09:21.668Z,15.49
2017-11-25T12:10:31.493Z,15.56
2017-11-25T12:11:41.569Z,15.56
2017-11-25T12:12:51.647Z,15.43
2017-11-25T12:14:01.733Z,15.43
2017-11-25T12:15:11.892Z,15.27
2017-11-25T12:16:22.034Z,15.18
2017-11-25T12:17:32.119Z,15.08
2017-11-25T12:18:41.928Z,15.05
2017-11-25T12:19:51.769Z,15.1
2017-11-25T12:21:01.913Z,15.07
2017-11-25T12:22:12.017Z,15.04
2017-11-25T12:23:21.860Z,15.05
2017-11-25T12:24:31.945Z,15.18
2017-11-25T12:25:41.766Z,15.26
2017-11-25T12:26:51.858Z,15.33
2017-11-25T12:28:01.412Z,15.56
2017-11-25T12:29:11.497Z,15.83
2017-11-25T12:30:21.413Z,15.99
2017-11-25T12:31:31.729Z,15.95
2017-11-25T12:32:41.546Z,15.8
2017-11-25T12:33:51.380Z,15.74
2017-11-25T12:35:00.938Z,15.67
2017-11-25T12:36:10.561Z,15.62
2017-11-25T12:37:20.643Z,15.77
2017-11-25T12:38:30.455Z,15.89
2017-11-25T12:39:40.551Z,16.33
2017-11-25T12:40:50.652Z,16.47
2017-11-25T12:42:00.776Z,16.76
2017-11-25T12:43:10.867Z,16.58
2017-11-25T12:44:20.953Z,16.47
2017-11-25T12:45:30.762Z,16.42
2017-11-25T12:46:40.855Z,16.42
2017-11-25T12:47:50.676Z,16.3
2017-11-25T12:49:00.761Z,16.27
2017-11-25T12:50:10.607Z,16.32
2017-11-25T12:51:20.740Z,16.25
2017-11-25T12:52:30.548Z,16.11
2017-11-25T12:53:40.369Z,16.22
2017-11-25T12:54:50.214Z,16.27
2017-11-25T12:56:00.327Z,16.39
2017-11-25T12:57:10.149Z,16.39
2017-11-25T12:58:20.237Z,16.57
2017-11-25T12:59:30.327Z,16.58
2017-11-25T13:00:40.423Z,16.57
2017-11-25T13:01:50.252Z,16.69
2017-11-25T13:03:00.524Z,16.63
2017-11-25T13:04:10.348Z,16.69
2017-11-25T13:05:20.446Z,16.7
2017-11-25T13:06:30.556Z,16.65
2017-11-25T13:07:40.388Z,16.67
2017-11-25T13:08:50.219Z,16.54
2017-11-25T13:10:00.034Z,16.54
2017-11-25T13:11:09.643Z,16.4
2017-11-25T13:12:19.505Z,16.39
2017-11-25T13:13:29.320Z,16.29
2017-11-25T13:14:38.864Z,16.1
2017-11-25T13:15:48.703Z,16.11
2017-11-25T13:16:58.524Z,15.88
2017-11-25T13:18:08.610Z,15.83
2017-11-25T13:19:18.691Z,15.63
2017-11-25T13:20:28.509Z,15.52
2017-11-25T13:21:38.326Z,15.43
2017-11-25T13:22:48.422Z,15.3
2017-11-25T13:23:58.261Z,15.1
2017-11-25T13:25:08.358Z,15
2017-11-25T13:26:18.154Z,14.77
2017-11-25T13:27:27.970Z,14.66
2017-11-25T13:28:37.840Z,14.56
2017-11-25T13:29:47.667Z,14.45
2017-11-25T13:30:57.762Z,14.26
2017-11-25T13:32:07.585Z,14.19
2017-11-25T13:33:17.683Z,14.05
2017-11-25T13:34:27.237Z,13.99
2017-11-25T13:35:36.790Z,13.87
2017-11-25T13:36:46.615Z,13.75
2017-11-25T13:37:56.716Z,13.73
2017-11-25T13:39:06.547Z,13.72
2017-11-25T13:40:16.637Z,13.66
2017-11-25T13:41:26.769Z,13.63
2017-11-25T13:42:36.876Z,13.6
2017-11-25T13:43:46.977Z,13.62
2017-11-25T13:44:57.089Z,13.5
2017-11-25T13:46:06.650Z,13.51
2017-11-25T13:47:16.470Z,13.53
2017-11-25T13:48:26.295Z,13.45
2017-11-25T13:49:36.098Z,13.31
2017-11-25T13:50:45.655Z,13.31
2017-11-25T13:51:55.535Z,13.21
2017-11-25T13:53:05.637Z,13.17
2017-11-25T13:54:15.741Z,13.11
2017-11-25T13:55:25.574Z,13.06
2017-11-25T13:56:35.407Z,12.99
2017-11-25T13:57:45.314Z,12.98
2017-11-25T13:58:55.406Z,12.91
2017-11-25T14:00:05.501Z,12.91
2017-11-25T14:01:15.593Z,12.77
2017-11-25T14:02:25.394Z,12.66
2017-11-25T14:03:35.879Z,12.7
2017-11-25T14:04:45.994Z,12.61
2017-11-25T14:05:56.118Z,12.58
2017-11-25T14:07:06.193Z,12.47
2017-11-25T14:08:16.266Z,12.48
2017-11-25T14:09:26.152Z,12.47
2017-11-25T14:10:35.706Z,12.34
2017-11-25T14:11:45.291Z,12.34
2017-11-25T14:12:55.627Z,12.19
2017-11-25T14:14:05.709Z,12.18
2017-11-25T14:15:15.303Z,12.15
2017-11-25T14:16:25.138Z,12.16
2017-11-25T14:17:34.968Z,12.1
2017-11-25T14:18:44.808Z,11.89
2017-11-25T14:19:54.638Z,11.89
2017-11-25T14:21:04.706Z,11.95
2017-11-25T14:22:14.281Z,11.81
2017-11-25T14:23:24.360Z,11.81
2017-11-25T14:24:34.442Z,11.81
2017-11-25T14:25:44.510Z,11.75
2017-11-25T14:26:54.635Z,11.66
2017-11-25T14:28:04.488Z,11.7
2017-11-25T14:29:14.336Z,11.48
2017-11-25T14:30:24.434Z,11.49
2017-11-25T14:31:34.529Z,11.49
2017-11-25T14:32:44.699Z,11.35
2017-11-25T14:33:54.533Z,11.38
2017-11-25T14:35:04.618Z,11.34
2017-11-25T14:36:14.420Z,11.26
2017-11-25T14:37:24.242Z,11.16
2017-11-25T14:38:34.442Z,11.21
2017-11-25T14:39:44.533Z,11.23
2017-11-25T14:40:54.373Z,11.24
2017-11-25T14:42:04.466Z,11.21
2017-11-25T14:43:14.568Z,11.2
2017-11-25T14:44:24.643Z,11.27
2017-11-25T14:45:34.718Z,11.31
2017-11-25T14:46:44.573Z,11.2
2017-11-25T14:47:54.655Z,11.28
2017-11-25T14:49:04.506Z,11.18
2017-11-25T14:50:14.367Z,11.21
2017-11-25T14:51:24.163Z,11.3
2017-11-25T14:52:34.018Z,11.28
2017-11-25T14:53:44.169Z,11.28
2017-11-25T14:54:53.997Z,11.21
2017-11-25T14:56:04.152Z,11.24
2017-11-25T14:57:13.966Z,11.15
2017-11-25T14:58:23.511Z,11.06
2017-11-25T14:59:33.603Z,11.1
2017-11-25T15:00:43.728Z,10.98
2017-11-25T15:01:53.796Z,11.05
2017-11-25T15:03:03.878Z,11.02
2017-11-25T15:04:13.700Z,10.84
2017-11-25T15:05:23.797Z,10.87
2017-11-25T15:06:33.894Z,10.87
2017-11-25T15:07:43.718Z,10.87
2017-11-25T15:08:53.787Z,10.92
2017-11-25T15:10:04.520Z,10.88
2017-11-25T15:11:14.618Z,10.92
2017-11-25T15:12:23.895Z,10.94
2017-11-25T15:13:33.712Z,10.83
2017-11-25T15:14:43.555Z,10.79
2017-11-25T15:15:53.647Z,10.8
2017-11-25T15:17:03.775Z,10.73
2017-11-25T15:18:14.807Z,10.76
2017-11-25T15:19:25.158Z,10.69
2017-11-25T15:20:34.705Z,10.69
2017-11-25T15:21:44.545Z,10.58
2017-11-25T15:22:54.387Z,10.55
2017-11-25T15:24:04.473Z,10.54
2017-11-25T15:25:14.610Z,10.52
2017-11-25T15:26:24.688Z,10.52
2017-11-25T15:27:34.801Z,10.46
2017-11-25T15:28:44.925Z,10.57
2017-11-25T15:29:55.019Z,10.57
2017-11-25T15:31:05.212Z,10.54
2017-11-25T15:32:15.055Z,10.47
2017-11-25T15:33:25.149Z,10.46
2017-11-25T15:34:34.978Z,10.39
2017-11-25T15:35:45.066Z,10.47
2017-11-25T15:36:55.161Z,10.36
2017-11-25T15:38:05.294Z,10.36
2017-11-25T15:39:15.419Z,10.31
2017-11-25T15:40:25.510Z,10.36
2017-11-25T15:41:35.606Z,10.36
2017-11-25T15:42:45.689Z,10.36
2017-11-25T15:43:55.816Z,10.32
2017-11-25T15:45:05.897Z,10.29
2017-11-25T15:46:15.702Z,10.38
2017-11-25T15:47:25.796Z,10.35
2017-11-25T15:48:35.354Z,10.28
2017-11-25T15:49:45.473Z,10.35
2017-11-25T15:50:55.585Z,10.31
2017-11-25T15:52:05.401Z,10.28
2017-11-25T15:53:15.488Z,10.25
2017-11-25T15:54:25.311Z,10.32
2017-11-25T15:55:34.864Z,10.25
2017-11-25T15:56:44.955Z,10.35
2017-11-25T15:57:54.249Z,10.33